createdAt,value
2022-11-02T00:00:01.394Z,13.1
2022-11-02T00:01:00.971Z,13.2
2022-11-02T00:02:01.638Z,13.1
2022-11-02T00:03:01.387Z,13.1
2022-11-02T00:04:01.307Z,13.1
2022-11-02T00:05:01.883Z,13.2
2022-11-02T00:06:00.982Z,13.1
2022-11-02T00:07:01.556Z,13.1
2022-11-02T00:08:01.159Z,13.1
2022-11-02T00:09:01.726Z,13.2
2022-11-02T00:10:01.319Z,13.1
2022-11-02T00:11:01.882Z,13.1
2022-11-02T00:12:01.479Z,13.1
2022-11-02T00:13:01.258Z,13.1
2022-11-02T00:14:01.671Z,13.1
2022-11-02T00:15:01.256Z,13.1
2022-11-02T00:16:01.834Z,13.1
2022-11-02T00:17:01.406Z,13.1
2022-11-02T00:18:01.036Z,13.1
2022-11-02T00:19:01.577Z,13.1
2022-11-02T00:20:01.152Z,13.1
2022-11-02T00:21:01.723Z,13.1
2022-11-02T00:22:01.297Z,13.2
2022-11-02T00:23:02.077Z,13.1
2022-11-02T00:24:01.879Z,13.1
2022-11-02T00:25:01.108Z,13.1
2022-11-02T00:26:02.456Z,13.1
2022-11-02T00:27:01.273Z,13
2022-11-02T00:28:01.844Z,13
2022-11-02T00:29:01.417Z,13
2022-11-02T00:30:01.007Z,13
2022-11-02T00:31:01.596Z,13
2022-11-02T00:32:01.188Z,13
2022-11-02T00:33:02.101Z,13
2022-11-02T00:34:01.440Z,13
2022-11-02T00:35:01.010Z,13
2022-11-02T00:36:01.595Z,12.9
2022-11-02T00:37:01.176Z,13
2022-11-02T00:38:02.007Z,13
2022-11-02T00:39:01.400Z,13
2022-11-02T00:40:01.001Z,13
2022-11-02T00:41:01.563Z,13
2022-11-02T00:42:01.134Z,13
2022-11-02T00:43:01.707Z,13
2022-11-02T00:44:01.285Z,13
2022-11-02T00:45:01.862Z,13
2022-11-02T00:46:01.458Z,13
2022-11-02T00:47:01.039Z,13
2022-11-02T00:48:01.947Z,13
2022-11-02T00:49:01.260Z,13
2022-11-02T00:50:01.833Z,13
2022-11-02T00:51:01.423Z,13.1
2022-11-02T00:52:01.009Z,13.1
2022-11-02T00:53:01.574Z,13.2
2022-11-02T00:54:01.194Z,13.2
2022-11-02T00:55:01.731Z,13.2
2022-11-02T00:56:01.346Z,13.2
2022-11-02T00:58:01.849Z,13.2
2022-11-02T00:59:01.646Z,13.2
2022-11-02T01:00:01.220Z,13.1
2022-11-02T01:01:01.855Z,13.1
2022-11-02T01:02:01.520Z,13
2022-11-02T01:03:01.184Z,13
2022-11-02T01:04:01.765Z,12.9
2022-11-02T01:05:01.337Z,12.9
2022-11-02T01:06:01.939Z,12.9
2022-11-02T01:07:01.532Z,12.9
2022-11-02T01:08:01.182Z,13
2022-11-02T01:09:01.678Z,13
2022-11-02T01:10:01.252Z,13
2022-11-02T01:11:01.860Z,13
2022-11-02T01:12:01.458Z,13.2
2022-11-02T01:13:01.023Z,13.2
2022-11-02T01:14:01.605Z,13.2
2022-11-02T01:15:01.178Z,13.2
2022-11-02T01:16:01.775Z,13.3
2022-11-02T01:17:01.348Z,13.3
2022-11-02T01:18:02.146Z,13.3
2022-11-02T01:19:01.923Z,13.3
2022-11-02T01:20:01.155Z,13.3
2022-11-02T01:21:01.750Z,13.4
2022-11-02T01:22:01.332Z,13.4
2022-11-02T01:23:01.904Z,13.3
2022-11-02T01:24:01.478Z,13.3
2022-11-02T01:25:01.055Z,13.3
2022-11-02T01:26:01.647Z,13.2
2022-11-02T01:27:01.222Z,13.2
2022-11-02T01:28:02.155Z,13.1
2022-11-02T01:29:01.454Z,13
2022-11-02T01:30:01.030Z,13
2022-11-02T01:31:01.619Z,12.9
2022-11-02T01:32:01.199Z,12.9
2022-11-02T01:33:01.773Z,13
2022-11-02T01:34:01.346Z,12.9
2022-11-02T01:35:01.921Z,12.9
2022-11-02T01:36:01.518Z,13
2022-11-02T01:37:01.094Z,12.9
2022-11-02T01:38:01.923Z,13
2022-11-02T01:39:01.325Z,13
2022-11-02T01:40:01.934Z,12.9
2022-11-02T01:41:01.559Z,13.1
2022-11-02T01:42:01.124Z,13
2022-11-02T01:43:01.697Z,13
2022-11-02T01:44:01.296Z,13
2022-11-02T01:45:01.863Z,13
2022-11-02T01:46:01.453Z,12.9
2022-11-02T01:47:01.019Z,12.9
2022-11-02T01:48:01.796Z,13
2022-11-02T01:49:01.252Z,13
2022-11-02T01:50:01.847Z,12.9
2022-11-02T01:51:01.435Z,12.9
2022-11-02T01:52:01.002Z,12.8
2022-11-02T01:53:01.575Z,12.8
2022-11-02T01:54:01.150Z,12.8
2022-11-02T01:55:01.783Z,12.6
2022-11-02T01:56:01.356Z,12.7
2022-11-02T01:57:00.950Z,12.7
2022-11-02T01:58:01.643Z,12.7
2022-11-02T01:59:01.160Z,12.7
2022-11-02T02:00:01.759Z,12.7
2022-11-02T02:01:01.345Z,12.6
2022-11-02T02:02:02.011Z,12.7
2022-11-02T02:03:01.700Z,12.7
2022-11-02T02:04:01.140Z,12.7
2022-11-02T02:05:01.716Z,12.6
2022-11-02T02:06:01.289Z,12.6
2022-11-02T02:07:01.883Z,12.6
2022-11-02T02:08:01.680Z,12.6
2022-11-02T02:09:01.096Z,12.6
2022-11-02T02:10:01.686Z,12.6
2022-11-02T02:11:01.260Z,12.6
2022-11-02T02:12:01.851Z,12.7
2022-11-02T02:13:01.423Z,12.7
2022-11-02T02:14:01.002Z,12.8
2022-11-02T02:15:01.584Z,12.8
2022-11-02T02:16:01.192Z,12.9
2022-11-02T02:17:01.757Z,12.9
2022-11-02T02:18:01.579Z,13
2022-11-02T02:19:01.914Z,13.1
2022-11-02T02:20:01.500Z,13.1
2022-11-02T02:21:01.077Z,13.2
2022-11-02T02:22:01.659Z,13.2
2022-11-02T02:23:01.259Z,13.2
2022-11-02T02:24:01.835Z,13.3
2022-11-02T02:25:01.415Z,13.3
2022-11-02T02:26:00.986Z,13.2
2022-11-02T02:27:01.559Z,13.3
2022-11-02T02:28:01.389Z,13.2
2022-11-02T02:29:01.237Z,13.2
2022-11-02T02:30:01.811Z,13.2
2022-11-02T02:31:00.946Z,13.1
2022-11-02T02:32:01.541Z,13.1
2022-11-02T02:33:01.138Z,13.1
2022-11-02T02:34:01.701Z,13
2022-11-02T02:35:01.277Z,12.9
2022-11-02T02:36:01.849Z,12.9
2022-11-02T02:37:01.423Z,12.9
2022-11-02T02:38:01.220Z,12.8
2022-11-02T02:39:01.599Z,12.8
2022-11-02T02:40:01.173Z,12.8
2022-11-02T02:41:01.748Z,12.9
2022-11-02T02:42:01.324Z,12.9
2022-11-02T02:43:01.903Z,12.8
2022-11-02T02:44:01.492Z,12.8
2022-11-02T02:45:01.111Z,12.8
2022-11-02T02:46:01.685Z,12.7
2022-11-02T02:47:01.265Z,12.8
2022-11-02T02:48:02.268Z,12.8
2022-11-02T02:49:01.064Z,12.8
2022-11-02T02:50:01.637Z,12.7
2022-11-02T02:51:01.217Z,12.7
2022-11-02T02:52:01.793Z,12.7
2022-11-02T02:53:01.366Z,12.7
2022-11-02T02:54:00.957Z,12.6
2022-11-02T02:55:01.576Z,12.6
2022-11-02T02:56:01.158Z,12.7
2022-11-02T02:57:01.808Z,12.6
2022-11-02T02:58:01.501Z,12.6
2022-11-02T02:59:00.970Z,12.6
2022-11-02T03:00:01.529Z,12.6
2022-11-02T03:01:01.118Z,12.6
2022-11-02T03:02:01.732Z,12.5
2022-11-02T03:03:01.477Z,12.5
2022-11-02T03:04:01.952Z,12.6
2022-11-02T03:05:01.535Z,12.6
2022-11-02T03:06:01.134Z,12.6
2022-11-02T03:07:01.694Z,12.5
2022-11-02T03:08:01.496Z,12.5
2022-11-02T03:09:01.856Z,12.4
2022-11-02T03:10:01.431Z,12.4
2022-11-02T03:11:01.023Z,12.3
2022-11-02T03:12:01.607Z,12.4
2022-11-02T03:13:01.180Z,12.4
2022-11-02T03:14:01.757Z,12.4
2022-11-02T03:15:01.330Z,12.5
2022-11-02T03:16:01.920Z,12.5
2022-11-02T03:17:01.509Z,12.6
2022-11-02T03:18:01.194Z,12.6
2022-11-02T03:19:01.669Z,12.6
2022-11-02T03:20:01.264Z,12.7
2022-11-02T03:21:01.850Z,12.7
2022-11-02T03:22:01.446Z,12.7
2022-11-02T03:23:01.001Z,12.7
2022-11-02T03:24:01.572Z,12.7
2022-11-02T03:25:01.145Z,12.7
2022-11-02T03:26:01.719Z,12.8
2022-11-02T03:27:01.314Z,12.7
2022-11-02T03:28:02.112Z,12.7
2022-11-02T03:29:01.928Z,12.7
2022-11-02T03:30:01.091Z,12.7
2022-11-02T03:31:01.666Z,12.7
2022-11-02T03:32:01.257Z,12.7
2022-11-02T03:33:01.826Z,12.7
2022-11-02T03:34:01.402Z,12.7
2022-11-02T03:35:00.974Z,12.7
2022-11-02T03:36:01.570Z,12.7
2022-11-02T03:37:01.231Z,12.6
2022-11-02T03:38:01.947Z,12.7
2022-11-02T03:39:01.366Z,12.7
2022-11-02T03:40:00.935Z,12.6
2022-11-02T03:41:01.510Z,12.7
2022-11-02T03:42:01.100Z,12.7
2022-11-02T03:43:01.664Z,12.8
2022-11-02T03:44:01.238Z,12.8
2022-11-02T03:45:01.842Z,12.7
2022-11-02T03:46:01.423Z,12.6
2022-11-02T03:47:01.017Z,12.5
2022-11-02T03:48:01.901Z,12.6
2022-11-02T03:49:03.416Z,12.6
2022-11-02T03:50:01.785Z,12.5
2022-11-02T03:51:01.358Z,12.5
2022-11-02T03:52:00.955Z,12.5
2022-11-02T03:53:01.533Z,12.5
2022-11-02T03:54:01.105Z,12.5
2022-11-02T03:55:01.681Z,12.4
2022-11-02T03:56:01.370Z,12.3
2022-11-02T03:57:01.896Z,12.3
2022-11-02T03:58:01.742Z,12.3
2022-11-02T03:59:01.085Z,12.3
2022-11-02T04:00:01.659Z,12.3
2022-11-02T04:01:01.234Z,12.3
2022-11-02T04:02:01.921Z,12.3
2022-11-02T04:03:01.483Z,12.3
2022-11-02T04:04:01.043Z,12.3
2022-11-02T04:05:01.615Z,12.4
2022-11-02T04:06:01.189Z,12.4
2022-11-02T04:07:01.766Z,12.4
2022-11-02T04:08:01.415Z,12.4
2022-11-02T04:09:01.927Z,12.4
2022-11-02T04:10:01.507Z,12.4
2022-11-02T04:11:01.080Z,12.4
2022-11-02T04:12:01.657Z,12.5
2022-11-02T04:13:01.254Z,12.4
2022-11-02T04:14:01.819Z,12.4
2022-11-02T04:15:01.394Z,12.5
2022-11-02T04:16:00.972Z,12.6
2022-11-02T04:17:01.553Z,12.5
2022-11-02T04:18:01.294Z,12.7
2022-11-02T04:19:01.717Z,12.6
2022-11-02T04:20:01.300Z,12.5
2022-11-02T04:21:01.868Z,12.5
2022-11-02T04:22:01.441Z,12.4
2022-11-02T04:23:01.033Z,12.4
2022-11-02T04:24:01.639Z,12.5
2022-11-02T04:25:01.214Z,12.5
2022-11-02T04:26:01.784Z,12.5
2022-11-02T04:27:01.356Z,12.4
2022-11-02T04:28:02.163Z,12.4
2022-11-02T04:29:01.926Z,12.5
2022-11-02T04:30:01.174Z,12.5
2022-11-02T04:31:01.753Z,12.3
2022-11-02T04:32:01.344Z,12.4
2022-11-02T04:33:01.919Z,12.4
2022-11-02T04:34:01.507Z,12.3
2022-11-02T04:35:01.081Z,12.2
2022-11-02T04:36:01.654Z,12.2
2022-11-02T04:37:01.226Z,12.2
2022-11-02T04:38:02.077Z,12.2
2022-11-02T04:39:01.478Z,12.2
2022-11-02T04:40:01.068Z,12.2
2022-11-02T04:41:01.631Z,12.2
2022-11-02T04:42:01.224Z,12.3
2022-11-02T04:43:01.781Z,12.3
2022-11-02T04:44:01.356Z,12.3
2022-11-02T04:45:01.930Z,12.4
2022-11-02T04:46:01.507Z,12.3
2022-11-02T04:47:01.101Z,12.3
2022-11-02T04:48:01.858Z,12.2
2022-11-02T04:49:01.320Z,12.1
2022-11-02T04:50:01.896Z,12.1
2022-11-02T04:51:01.473Z,12.1
2022-11-02T04:52:01.061Z,12
2022-11-02T04:53:01.637Z,12
2022-11-02T04:54:01.213Z,12.2
2022-11-02T04:55:01.800Z,12.2
2022-11-02T04:56:01.445Z,12.2
2022-11-02T04:57:00.974Z,12.2
2022-11-02T04:58:01.713Z,12.2
2022-11-02T04:59:01.207Z,12.3
2022-11-02T05:00:01.806Z,12.2
2022-11-02T05:01:01.379Z,12.3
2022-11-02T05:02:01.107Z,12.3
2022-11-02T05:03:01.539Z,12.3
2022-11-02T05:04:01.111Z,12.2
2022-11-02T05:05:01.700Z,12.3
2022-11-02T05:06:01.279Z,12.4
2022-11-02T05:07:02.065Z,12.5
2022-11-02T05:08:01.967Z,12.6
2022-11-02T05:09:01.832Z,12.6
2022-11-02T05:10:01.427Z,12.6
2022-11-02T05:11:01.001Z,12.6
2022-11-02T05:12:01.599Z,12.6
2022-11-02T05:13:01.178Z,12.5
2022-11-02T05:14:01.750Z,12.4
2022-11-02T05:15:01.345Z,12.4
2022-11-02T05:16:01.915Z,12.4
2022-11-02T05:17:01.495Z,12.4
2022-11-02T05:18:01.175Z,12.5
2022-11-02T05:19:02.802Z,12.5
2022-11-02T05:20:01.204Z,12.5
2022-11-02T05:21:01.796Z,12.4
2022-11-02T05:22:01.374Z,12.4
2022-11-02T05:23:00.976Z,12.4
2022-11-02T05:24:01.535Z,12.4
2022-11-02T05:25:01.113Z,12.5
2022-11-02T05:26:01.706Z,12.5
2022-11-02T05:27:01.295Z,12.4
2022-11-02T05:28:01.885Z,12.4
2022-11-02T05:29:01.515Z,12.4
2022-11-02T05:30:01.102Z,12.4
2022-11-02T05:31:01.677Z,12.3
2022-11-02T05:32:01.266Z,12.5
2022-11-02T05:33:02.092Z,12.5
2022-11-02T05:34:01.497Z,12.6
2022-11-02T05:35:01.071Z,12.6
2022-11-02T05:36:01.645Z,12.6
2022-11-02T05:37:01.235Z,12.5
2022-11-02T05:38:01.802Z,12.6
2022-11-02T05:39:01.375Z,12.5
2022-11-02T05:40:00.952Z,12.4
2022-11-02T05:41:01.527Z,12.5
2022-11-02T05:42:01.117Z,12.4
2022-11-02T05:43:01.890Z,12.4
2022-11-02T05:44:01.373Z,12.4
2022-11-02T05:45:01.934Z,12.3
2022-11-02T05:46:01.514Z,12.3
2022-11-02T05:47:01.112Z,12.4
2022-11-02T05:48:01.679Z,12.4
2022-11-02T05:49:01.255Z,12.5
2022-11-02T05:50:01.830Z,12.5
2022-11-02T05:51:01.404Z,12.5
2022-11-02T05:52:00.997Z,12.4
2022-11-02T05:53:01.753Z,12.3
2022-11-02T05:54:01.221Z,12.2
2022-11-02T05:55:01.791Z,12.2
2022-11-02T05:56:01.364Z,12.2
2022-11-02T05:57:00.979Z,12.2
2022-11-02T05:58:01.543Z,12.3
2022-11-02T05:59:01.141Z,12.3
2022-11-02T06:00:01.783Z,12.3
2022-11-02T06:01:01.365Z,12.3
2022-11-02T06:02:02.016Z,12.4
2022-11-02T06:03:01.970Z,12.4
2022-11-02T06:04:01.741Z,12.2
2022-11-02T06:05:01.352Z,12.2
2022-11-02T06:06:00.955Z,12.2
2022-11-02T06:07:01.531Z,12.2
2022-11-02T06:08:01.106Z,12.1
2022-11-02T06:09:06.834Z,12.2
2022-11-02T06:10:01.233Z,12.2
2022-11-02T06:11:01.808Z,12.2
2022-11-02T06:12:01.382Z,12.2
2022-11-02T06:13:01.071Z,12.3
2022-11-02T06:14:01.548Z,12.2
2022-11-02T06:15:01.146Z,12.1
2022-11-02T06:16:01.750Z,12.1
2022-11-02T06:17:01.321Z,12.1
2022-11-02T06:18:01.894Z,11.9
2022-11-02T06:19:01.576Z,12
2022-11-02T06:20:01.139Z,11.9
2022-11-02T06:21:01.728Z,11.9
2022-11-02T06:22:01.301Z,12
2022-11-02T06:23:02.121Z,12.2
2022-11-02T06:24:01.941Z,12.2
2022-11-02T06:25:01.117Z,12.1
2022-11-02T06:26:01.710Z,12.1
2022-11-02T06:27:01.287Z,12.1
2022-11-02T06:28:01.863Z,12.1
2022-11-02T06:29:01.441Z,12
2022-11-02T06:30:01.049Z,12
2022-11-02T06:31:01.619Z,12
2022-11-02T06:32:01.221Z,12
2022-11-02T06:33:06.874Z,12
2022-11-02T06:34:01.320Z,12.2
2022-11-02T06:35:01.896Z,12.1
2022-11-02T06:36:01.496Z,12.2
2022-11-02T06:37:01.071Z,12.1
2022-11-02T06:38:01.644Z,12.2
2022-11-02T06:39:01.217Z,12.2
2022-11-02T06:40:01.825Z,12.2
2022-11-02T06:41:01.424Z,12.3
2022-11-02T06:42:00.987Z,12.3
2022-11-02T06:43:15.777Z,12.4
2022-11-02T06:44:01.099Z,12.5
2022-11-02T06:45:01.671Z,12.4
2022-11-02T06:46:01.260Z,12.5
2022-11-02T06:47:01.830Z,12.4
2022-11-02T06:48:01.428Z,12.4
2022-11-02T06:49:00.979Z,12.4
2022-11-02T06:50:01.555Z,12.4
2022-11-02T06:51:01.150Z,12.4
2022-11-02T06:52:01.718Z,12.4
2022-11-02T06:53:01.507Z,12.6
2022-11-02T06:54:06.033Z,12.5
2022-11-02T06:55:01.415Z,12.6
2022-11-02T06:56:01.125Z,12.6
2022-11-02T06:57:01.581Z,12.5
2022-11-02T06:58:01.207Z,12.6
2022-11-02T06:59:01.737Z,12.5
2022-11-02T07:00:01.349Z,12.6
2022-11-02T07:01:02.078Z,12.5
2022-11-02T07:02:01.848Z,12.5
2022-11-02T07:03:01.340Z,12.6
2022-11-02T07:04:01.754Z,12.6
2022-11-02T07:05:01.325Z,12.6
2022-11-02T07:06:01.899Z,12.5
2022-11-02T07:07:01.472Z,12.5
2022-11-02T07:08:01.042Z,12.5
2022-11-02T07:09:01.631Z,12.5
2022-11-02T07:10:01.205Z,12.5
2022-11-02T07:11:01.782Z,12.5
2022-11-02T07:12:01.355Z,12.5
2022-11-02T07:13:02.177Z,12.5
2022-11-02T07:14:01.937Z,12.6
2022-11-02T07:15:01.173Z,12.5
2022-11-02T07:16:01.748Z,12.5
2022-11-02T07:17:01.327Z,12.5
2022-11-02T07:18:01.902Z,12.5
2022-11-02T07:19:01.493Z,12.6
2022-11-02T07:20:01.099Z,12.6
2022-11-02T07:21:01.647Z,12.5
2022-11-02T07:22:01.220Z,12.6
2022-11-02T07:23:02.005Z,12.5
2022-11-02T07:24:01.461Z,12.6
2022-11-02T07:25:01.021Z,12.7
2022-11-02T07:26:01.593Z,12.7
2022-11-02T07:27:01.165Z,12.6
2022-11-02T07:28:01.746Z,12.7
2022-11-02T07:29:01.339Z,12.6
2022-11-02T07:30:01.913Z,12.6
2022-11-02T07:31:01.517Z,12.6
2022-11-02T07:32:01.095Z,12.6
2022-11-02T07:33:01.897Z,12.6
2022-11-02T07:34:01.326Z,12.6
2022-11-02T07:35:01.899Z,12.6
2022-11-02T07:36:01.545Z,12.6
2022-11-02T07:37:01.126Z,12.7
2022-11-02T07:38:01.702Z,12.7
2022-11-02T07:39:01.277Z,12.7
2022-11-02T07:40:01.873Z,12.7
2022-11-02T07:41:01.469Z,12.7
2022-11-02T07:42:01.088Z,12.7
2022-11-02T07:43:01.893Z,12.7
2022-11-02T07:44:01.259Z,12.7
2022-11-02T07:45:01.870Z,12.7
2022-11-02T07:46:01.467Z,12.7
2022-11-02T07:47:01.037Z,12.7
2022-11-02T07:48:01.615Z,12.7
2022-11-02T07:49:01.191Z,12.7
2022-11-02T07:50:01.765Z,12.7
2022-11-02T07:51:01.360Z,12.7
2022-11-02T07:52:01.937Z,12.7
2022-11-02T07:53:01.611Z,12.7
2022-11-02T07:54:01.155Z,12.8
2022-11-02T07:55:01.731Z,12.7
2022-11-02T07:56:01.324Z,12.8
2022-11-02T07:57:01.888Z,12.9
2022-11-02T07:58:01.511Z,12.9
2022-11-02T07:59:01.085Z,12.8
2022-11-02T08:00:01.657Z,12.7
2022-11-02T08:01:01.254Z,12.8
2022-11-02T08:02:01.822Z,12.8
2022-11-02T08:03:01.466Z,12.8
2022-11-02T08:04:00.988Z,12.8
2022-11-02T08:05:01.586Z,12.7
2022-11-02T08:06:01.170Z,12.8
2022-11-02T08:07:01.749Z,12.8
2022-11-02T08:08:01.619Z,12.7
2022-11-02T08:09:01.906Z,12.7
2022-11-02T08:10:01.486Z,12.8
2022-11-02T08:11:01.057Z,12.7
2022-11-02T08:12:01.628Z,12.6
2022-11-02T08:13:01.217Z,12.6
2022-11-02T08:14:01.784Z,12.6
2022-11-02T08:15:06.432Z,12.7
2022-11-02T08:16:01.898Z,12.6
2022-11-02T08:17:01.471Z,12.7
2022-11-02T08:18:01.229Z,12.7
2022-11-02T08:19:01.634Z,12.7
2022-11-02T08:20:01.203Z,12.7
2022-11-02T08:21:01.778Z,12.7
2022-11-02T08:22:01.351Z,12.7
2022-11-02T08:23:01.944Z,12.8
2022-11-02T08:24:01.543Z,12.7
2022-11-02T08:25:01.147Z,12.8
2022-11-02T08:26:01.705Z,12.9
2022-11-02T08:27:01.280Z,13
2022-11-02T08:28:01.998Z,13.1
2022-11-02T08:29:01.516Z,13
2022-11-02T08:30:01.092Z,13
2022-11-02T08:31:01.668Z,12.9
2022-11-02T08:32:01.241Z,12.9
2022-11-02T08:33:01.832Z,12.9
2022-11-02T08:34:01.445Z,12.9
2022-11-02T08:35:00.979Z,12.9
2022-11-02T08:36:01.552Z,13
2022-11-02T08:37:01.127Z,13
2022-11-02T08:38:02.090Z,12.9
2022-11-02T08:39:01.923Z,12.9
2022-11-02T08:40:01.539Z,13
2022-11-02T08:41:01.113Z,13
2022-11-02T08:42:01.690Z,13
2022-11-02T08:43:01.267Z,13
2022-11-02T08:44:01.856Z,13
2022-11-02T08:45:01.444Z,13
2022-11-02T08:46:14.174Z,13
2022-11-02T08:47:03.058Z,13.1
2022-11-02T08:48:01.076Z,13
2022-11-02T08:49:01.667Z,13
2022-11-02T08:50:01.256Z,13
2022-11-02T08:51:01.828Z,13
2022-11-02T08:52:01.399Z,13
2022-11-02T08:53:00.974Z,13.1
2022-11-02T08:54:01.561Z,13.2
2022-11-02T08:55:01.134Z,13.2
2022-11-02T08:56:01.744Z,13.2
2022-11-02T08:57:01.333Z,13.1
2022-11-02T08:58:02.058Z,13.1
2022-11-02T08:59:01.862Z,13.2
2022-11-02T09:00:01.128Z,13.3
2022-11-02T09:01:01.718Z,13.4
2022-11-02T09:02:01.436Z,13.3
2022-11-02T09:03:01.906Z,13.2
2022-11-02T09:04:01.507Z,13.1
2022-11-02T09:05:01.078Z,13.2
2022-11-02T09:06:01.664Z,13.2
2022-11-02T09:07:01.243Z,13.2
2022-11-02T09:08:02.059Z,13.2
2022-11-02T09:09:01.470Z,13.2
2022-11-02T09:10:01.045Z,13.1
2022-11-02T09:11:01.634Z,13
2022-11-02T09:12:01.232Z,13
2022-11-02T09:13:01.929Z,12.9
2022-11-02T09:14:01.486Z,13
2022-11-02T09:15:01.025Z,12.9
2022-11-02T09:16:01.615Z,12.8
2022-11-02T09:17:01.205Z,12.9
2022-11-02T09:18:02.015Z,12.9
2022-11-02T09:19:01.421Z,13
2022-11-02T09:20:00.992Z,12.9
2022-11-02T09:21:01.567Z,12.8
2022-11-02T09:22:04.904Z,12.8
2022-11-02T09:23:01.698Z,12.9
2022-11-02T09:24:01.271Z,12.9
2022-11-02T09:25:01.851Z,12.9
2022-11-02T09:26:01.427Z,12.9
2022-11-02T09:27:01.019Z,12.9
2022-11-02T09:28:01.629Z,13
2022-11-02T09:29:01.224Z,13.1
2022-11-02T09:30:01.811Z,13.1
2022-11-02T09:31:01.605Z,13
2022-11-02T09:32:00.982Z,13
2022-11-02T09:33:01.756Z,13.1
2022-11-02T09:34:01.236Z,13.2
2022-11-02T09:35:01.804Z,13.3
2022-11-02T09:36:01.378Z,13.4
2022-11-02T09:37:01.968Z,13.3
2022-11-02T09:38:01.552Z,13.4
2022-11-02T09:39:01.148Z,13.4
2022-11-02T09:40:01.714Z,13.5
2022-11-02T09:41:01.300Z,13.4
2022-11-02T09:42:01.880Z,13.3
2022-11-02T09:43:01.589Z,13.2
2022-11-02T09:44:01.159Z,13.3
2022-11-02T09:45:01.723Z,13.3
2022-11-02T09:46:01.314Z,13.3
2022-11-02T09:47:40.350Z,13.3
2022-11-02T09:48:16.337Z,13.3
2022-11-02T09:49:00.963Z,13.3
2022-11-02T09:50:01.544Z,13.2
2022-11-02T09:51:02.226Z,13.3
2022-11-02T09:52:01.133Z,13.3
2022-11-02T09:53:01.917Z,13.3
2022-11-02T09:54:01.686Z,13.6
2022-11-02T09:55:01.261Z,13.7
2022-11-02T09:56:01.855Z,13.8
2022-11-02T09:57:01.448Z,13.7
2022-11-02T09:58:01.110Z,13.7
2022-11-02T09:59:01.603Z,13.4
2022-11-02T10:00:01.254Z,13.3
2022-11-02T10:01:02.081Z,13.2
2022-11-02T10:02:01.447Z,13.2
2022-11-02T10:03:01.054Z,13.4
2022-11-02T10:04:01.585Z,13.3
2022-11-02T10:05:01.163Z,13.3
2022-11-02T10:06:01.741Z,13.3
2022-11-02T10:07:01.334Z,13.1
2022-11-02T10:08:02.050Z,13.2
2022-11-02T10:09:01.748Z,13.1
2022-11-02T10:10:01.137Z,13.2
2022-11-02T10:11:05.459Z,13.2
2022-11-02T10:12:01.264Z,13.1
2022-11-02T10:13:01.968Z,13.1
2022-11-02T10:14:01.498Z,13.2
2022-11-02T10:15:01.074Z,13.3
2022-11-02T10:16:01.674Z,13.3
2022-11-02T10:17:01.270Z,13.3
2022-11-02T10:18:01.843Z,13.3
2022-11-02T10:19:01.416Z,13.3
2022-11-02T10:20:00.989Z,13.3
2022-11-02T10:21:01.570Z,13.5
2022-11-02T10:22:01.157Z,13.6
2022-11-02T10:23:01.927Z,13.4
2022-11-02T10:24:01.409Z,13.3
2022-11-02T10:25:00.975Z,13.4
2022-11-02T10:26:01.551Z,13.5
2022-11-02T10:27:01.126Z,13.5
2022-11-02T10:28:01.809Z,13.6
2022-11-02T10:29:01.365Z,13.6
2022-11-02T10:30:01.947Z,13.6
2022-11-02T10:31:01.520Z,13.7
2022-11-02T10:32:01.128Z,13.8
2022-11-02T10:33:01.798Z,13.8
2022-11-02T10:34:01.355Z,13.8
2022-11-02T10:35:17.827Z,13.7
2022-11-02T10:36:17.221Z,13.8
2022-11-02T10:37:01.012Z,13.8
2022-11-02T10:38:01.898Z,13.8
2022-11-02T10:39:01.236Z,13.9
2022-11-02T10:40:01.807Z,14.1
2022-11-02T10:41:01.414Z,14.1
2022-11-02T10:42:00.967Z,14.3
2022-11-02T10:43:01.544Z,14.1
2022-11-02T10:44:01.121Z,14.2
2022-11-02T10:45:01.696Z,14.4
2022-11-02T10:46:01.288Z,14.4
2022-11-02T10:47:01.861Z,14.3
2022-11-02T10:48:01.676Z,14.3
2022-11-02T10:49:01.019Z,14.3
2022-11-02T10:50:01.596Z,14.5
2022-11-02T10:51:01.191Z,14.6
2022-11-02T10:52:01.760Z,14.4
2022-11-02T10:53:14.431Z,14.5
2022-11-02T10:54:01.918Z,14.3
2022-11-02T10:55:01.520Z,14.2
2022-11-02T10:56:01.122Z,14.3
2022-11-02T10:57:01.691Z,14
2022-11-02T10:58:01.266Z,14
2022-11-02T10:59:01.845Z,14.1
2022-11-02T11:00:01.456Z,14.2
2022-11-02T11:01:01.059Z,14.3
2022-11-02T11:02:01.632Z,14.3
2022-11-02T11:03:01.226Z,14.3
2022-11-02T11:04:01.830Z,14.3
2022-11-02T11:05:01.409Z,14.3
2022-11-02T11:06:01.002Z,14.3
2022-11-02T11:07:01.572Z,14.5
2022-11-02T11:08:01.151Z,14.5
2022-11-02T11:09:01.729Z,14.5
2022-11-02T11:10:01.304Z,14.5
2022-11-02T11:11:01.897Z,14.5
2022-11-02T11:12:01.475Z,14.5
2022-11-02T11:13:01.493Z,14.5
2022-11-02T11:16:01.722Z,14.4
2022-11-02T11:20:06.126Z,14.3
2022-11-02T11:21:01.463Z,14.4
2022-11-02T11:22:01.039Z,14.3
2022-11-02T11:23:01.876Z,14.3
2022-11-02T11:24:01.322Z,14.3
2022-11-02T11:25:01.879Z,14.2
2022-11-02T11:26:01.452Z,14.1
2022-11-02T11:27:01.046Z,14.1
2022-11-02T11:28:01.884Z,13.9
2022-11-02T11:29:01.272Z,14
2022-11-02T11:30:01.860Z,14.1
2022-11-02T11:31:01.534Z,14
2022-11-02T11:32:01.027Z,14
2022-11-02T11:33:01.610Z,14
2022-11-02T11:34:01.205Z,14.1
2022-11-02T11:35:01.779Z,14.1
2022-11-02T11:36:01.426Z,14.2
2022-11-02T11:37:01.947Z,14.2
2022-11-02T11:38:01.677Z,14.3
2022-11-02T11:39:01.206Z,14.3
2022-11-02T11:40:01.778Z,14.3
2022-11-02T11:41:01.396Z,14.3
2022-11-02T11:42:01.945Z,14.2
2022-11-02T11:43:02.321Z,14.1
2022-11-02T11:44:01.089Z,14.2
2022-11-02T11:45:01.668Z,14.2
2022-11-02T11:46:05.640Z,14.3
2022-11-02T11:47:01.793Z,14.4
2022-11-02T11:48:01.477Z,14.4
2022-11-02T11:49:01.960Z,14.4
2022-11-02T11:50:12.077Z,14.4
2022-11-02T11:51:01.084Z,14.4
2022-11-02T11:52:01.811Z,14.4
2022-11-02T11:53:01.389Z,14.3
2022-11-02T11:54:01.957Z,14.3
2022-11-02T11:55:01.537Z,14.3
2022-11-02T11:56:01.111Z,14.2
2022-11-02T11:57:01.699Z,14.1
2022-11-02T11:58:01.462Z,14
2022-11-02T11:59:01.863Z,13.8
2022-11-02T12:00:01.455Z,13.9
2022-11-02T12:01:03.296Z,13.9
2022-11-02T12:02:01.809Z,14
2022-11-02T12:03:01.367Z,14.1
2022-11-02T12:04:01.865Z,14.2
2022-11-02T12:05:01.464Z,14.2
2022-11-02T12:06:01.024Z,14.3
2022-11-02T12:07:01.598Z,14.5
2022-11-02T12:08:01.197Z,14.6
2022-11-02T12:09:04.527Z,14.5
2022-11-02T12:10:01.310Z,14.5
2022-11-02T12:11:01.887Z,14.5
2022-11-02T12:12:01.461Z,14.6
2022-11-02T12:13:01.037Z,14.6
2022-11-02T12:14:01.627Z,14.5
2022-11-02T12:15:05.597Z,14.5
2022-11-02T12:16:01.738Z,14.5
2022-11-02T12:17:01.317Z,14.8
2022-11-02T12:18:02.040Z,14.8
2022-11-02T12:19:01.738Z,14.8
2022-11-02T12:20:01.137Z,14.8
2022-11-02T12:21:01.738Z,14.7
2022-11-02T12:22:01.315Z,14.7
2022-11-02T12:23:02.033Z,14.8
2022-11-02T12:24:01.734Z,14.7
2022-11-02T12:25:01.134Z,14.8
2022-11-02T12:26:03.353Z,14.7
2022-11-02T12:27:01.261Z,14.7
2022-11-02T12:28:01.835Z,14.6
2022-11-02T12:29:01.407Z,14.6
2022-11-02T12:30:00.979Z,14.6
2022-11-02T12:31:01.571Z,14.4
2022-11-02T12:32:01.232Z,14.4
2022-11-02T12:33:01.944Z,14.4
2022-11-02T12:34:01.384Z,14.5
2022-11-02T12:35:28.194Z,14.4
2022-11-02T12:36:01.514Z,14.3
2022-11-02T12:38:01.715Z,14.2
2022-11-02T12:39:01.333Z,14.1
2022-11-02T12:40:01.930Z,14.2
2022-11-02T12:41:01.530Z,14.2
2022-11-02T12:42:01.124Z,14.1
2022-11-02T12:43:01.922Z,14.1
2022-11-02T12:44:01.341Z,14.1
2022-11-02T12:45:01.917Z,14.1
2022-11-02T12:46:01.495Z,14.1
2022-11-02T12:47:01.087Z,14.2
2022-11-02T12:48:01.641Z,14.2
2022-11-02T12:49:01.219Z,14.2
2022-11-02T12:50:01.794Z,14.2
2022-11-02T12:51:01.371Z,14.4
2022-11-02T12:52:01.967Z,14.5
2022-11-02T12:53:01.584Z,14.7
2022-11-02T12:54:01.174Z,14.7
2022-11-02T12:55:01.752Z,14.7
2022-11-02T12:56:01.352Z,14.5
2022-11-02T12:57:01.929Z,14.4
2022-11-02T12:58:01.601Z,14.3
2022-11-02T12:59:01.157Z,14.2
2022-11-02T13:00:01.751Z,14.2
2022-11-02T13:01:01.399Z,14.2
2022-11-02T13:02:02.122Z,14.1
2022-11-02T13:03:02.041Z,14.2
2022-11-02T13:04:01.646Z,14.2
2022-11-02T13:05:01.221Z,14.3
2022-11-02T13:06:01.795Z,14.5
2022-11-02T13:07:01.948Z,14.6
2022-11-02T13:08:01.621Z,14.6
2022-11-02T13:09:01.193Z,14.5
2022-11-02T13:10:01.797Z,14.5
2022-11-02T13:11:01.378Z,14.5
2022-11-02T13:12:01.976Z,14.5
2022-11-02T13:13:01.553Z,14.6
2022-11-02T13:14:01.130Z,14.6
2022-11-02T13:15:01.725Z,14.6
2022-11-02T13:16:01.304Z,14.7
2022-11-02T13:17:01.881Z,14.8
2022-11-02T13:18:01.539Z,14.8
2022-11-02T13:19:01.122Z,14.9
2022-11-02T13:20:01.737Z,15
2022-11-02T13:21:01.394Z,15.1
2022-11-02T13:22:01.897Z,15.2
2022-11-02T13:23:01.530Z,15.1
2022-11-02T13:24:01.118Z,15.1
2022-11-02T13:25:01.715Z,15.1
2022-11-02T13:26:01.292Z,15.1
2022-11-02T13:27:14.090Z,15
2022-11-02T13:28:05.567Z,15
2022-11-02T13:29:01.953Z,15.1
2022-11-02T13:30:01.560Z,15.1
2022-11-02T13:31:01.155Z,15.3